Ana Sayfa
METAR-TAF:

METAR-TAF

Havaalanları :

Darüsselam, Tanzanya

Enlem: 06-52S, Boylam: 039-12E, yükseklik: 55 m

Güncel hava durumu gözlemi

Rapor saat 06:00 UTC de 37 dakika önce yapıldı.
Rüzgar kuzeydan 16 kt
Sıcaklık 30°C
Nem 75%
Basınç 1011 hPa
Görüş mesafesi 10 km veya daha fazla
1700 ft yükseklikte parçalı bulutlu
1900 ft yükseklikte parçalı çok bulutlu

METAR: HTDA 240600Z 01016KT 9999 SCT017 BKN019 30/25 Q1011 NOSIG

Saat: 09:37 (06:37 UTC)

Tahmin

Rapor saat 05:00 UTC de 1 saat ve 37 dakika önce yapıldı.
Ayın 24'si saat 06 UTC'den ayın 25'si saat 12 UTC'ye kadar geçerli Tahmin
Rüzgar kuzeydan 15 kt
Görüş mesafesi 10 km veya daha fazla
2400 ft yükseklikte parçalı çok bulutlu
Olasılık 30% :
Geçici
ayın 24'si saat 07 UTC'den ayın 24'si saat 13 UTC'ye kadar
yağmur
Dönüşüyor
ayın 24'si saat 15 UTC'den ayın 24'si saat 18 UTC'ye kadar
1800 ft yükseklikte parçalı bulutlu

TAF: HTDA 240500Z 2406/2512 01015KT 9999 BKN024 PROB30 TEMPO 2407/2413 RA BECMG 2415/2418 SCT018

4.000'den fazla havaalanı için hava durumu gözlemleri ve tahminleri (METAR ve TAF raporları).

Kullanılabilir istasyonlar harita üzerinde sarı ve kırmızı noktalarla gösterilir.

İstasyonun adını görmek için fareyi noktanın üzerinde gezdirin.

Sonrasında hava gözlem ve tahminlerini görmek için tıklayın.

Haritayı değiştirmek için: yaklaştırmak için siyah artı işaretli yeşil düğmeye ve uzaklaştırmak için de eksi işaretli düğmeye hızla tıklayın; bitişik haritalar için yeşil okları kullanın.


METAR-TAF: